Time;durP1;ratioP1;P1;durP2;ratioP2;P2;SDS_P1;SDS_P2;PMS_P1;PMS_P2;Temp;Humidity;BMP_temperature;BMP_pressure;BME280_temperature;BME280_humidity;BME280_pressure;Samples;Min_cycle;Max_cycle;Signal;HPM_P1;HPM_P2
2022/09/19 00:01:29;;;;;;;;;;;;;;;15.85;100.00;101607.97;5011158;28;20269;-57
2022/09/19 00:03:59;;;;;;;12.52;2.00;;;;;;;15.62;100.00;101603.06;4982779;28;19929;-56
2022/09/19 00:06:27;;;;;;;11.23;2.80;;;;;;;16.26;100.00;101602.44;5013914;28;20047;-55
2022/09/19 00:08:53;;;;;;;14.85;2.35;;;;;;;16.22;100.00;101606.63;4999242;28;20281;-54
2022/09/19 00:11:19;;;;;;;;;;;;;;;15.89;100.00;101601.13;5022884;28;20086;-55
2022/09/19 00:13:47;;;;;;;18.90;2.57;;;;;;;15.84;100.00;101605.50;5004834;28;19918;-55
2022/09/19 00:16:19;;;;;;;7.85;1.92;;;;;;;15.99;100.00;101600.69;5009648;28;20031;-56
2022/09/19 00:18:46;;;;;;;22.02;3.17;;;;;;;15.48;100.00;101600.38;4995748;28;20029;-56
2022/09/19 00:21:21;;;;;;;15.83;3.27;;;;;;;15.89;100.00;101595.72;4997141;28;20031;-57
2022/09/19 00:26:31;;;;;;;21.17;2.70;;;;;;;15.89;100.00;101595.72;5010319;28;20034;-56
2022/09/19 00:28:57;;;;;;;19.08;3.50;;;;;;;15.97;100.00;101601.94;5002566;28;20034;-55
2022/09/19 00:31:22;;;;;;;13.33;2.77;;;;;;;16.10;100.00;101601.88;5007598;28;20090;-55
2022/09/19 00:33:48;;;;;;;19.45;3.25;;;;;;;15.95;100.00;101609.44;5004620;28;20295;-53
2022/09/19 00:36:15;;;;;;;13.73;2.75;;;;;;;15.87;100.00;101607.75;5000740;28;20095;-55
2022/09/19 00:38:42;;;;;;;12.05;1.95;;;;;;;15.98;100.00;101609.81;5002251;28;20039;-56
2022/09/19 00:41:14;;;;;;;11.27;2.05;;;;;;;16.03;100.00;101611.88;5003943;28;20034;-53
2022/09/19 00:43:57;;;;;;;16.73;2.40;;;;;;;15.99;100.00;101614.16;5002610;28;20081;-54
2022/09/19 00:46:25;;;;;;;14.33;2.47;;;;;;;16.05;100.00;101616.03;4993241;28;20268;-57
2022/09/19 00:49:13;;;;;;;22.93;2.50;;;;;;;15.89;100.00;101613.78;5007331;28;20285;-52
2022/09/19 00:51:49;;;;;;;;;;;;;;;15.99;100.00;101618.75;5001084;28;20296;-54
2022/09/19 00:54:22;;;;;;;13.87;2.10;;;;;;;16.07;100.00;101613.09;5000250;28;19918;-55
2022/09/19 00:56:52;;;;;;;13.20;2.30;;;;;;;16.28;100.00;101622.78;5005897;28;20303;-57
2022/09/19 00:59:20;;;;;;;16.33;2.13;;;;;;;16.27;100.00;101618.44;5000528;28;20265;-55
2022/09/19 01:01:48;;;;;;;8.23;1.60;;;;;;;16.30;100.00;101612.59;5009276;28;20288;-55
2022/09/19 01:04:17;;;;;;;14.10;1.70;;;;;;;16.47;100.00;101628.28;5004515;28;20276;-53
2022/09/19 01:06:53;;;;;;;15.53;2.37;;;;;;;16.40;100.00;101622.94;4985592;28;20283;-56
2022/09/19 01:09:28;;;;;;;10.03;1.70;;;;;;;16.46;100.00;101627.47;4991633;28;20287;-53
2022/09/19 01:12:27;;;;;;;10.20;1.93;;;;;;;16.47;100.00;101628.28;5018331;28;20309;-57
2022/09/19 01:15:28;;;;;;;17.27;3.53;;;;;;;16.43;100.00;101625.22;4992060;28;20293;-53
2022/09/19 01:17:57;;;;;;;10.07;2.10;;;;;;;16.49;100.00;101628.91;4999592;28;20348;-52
2022/09/19 01:20:44;;;;;;;13.63;2.03;;;;;;;16.17;100.00;101635.09;5020415;28;20828;-54
2022/09/19 01:23:19;;;;;;;18.35;2.85;;;;;;;16.34;100.00;101629.19;5003770;28;20304;-56
2022/09/19 01:26:09;;;;;;;8.87;2.00;;;;;;;16.41;100.00;101635.41;5004041;28;20045;-56
2022/09/19 01:28:49;;;;;;;14.93;1.97;;;;;;;16.40;100.00;101644.53;5002660;28;20295;-55
2022/09/19 01:31:21;;;;;;;13.40;3.00;;;;;;;16.39;100.00;101642.88;5005188;28;20315;-55
2022/09/19 01:33:57;;;;;;;22.67;2.60;;;;;;;16.14;100.00;101640.88;4998345;28;20303;-56
2022/09/19 01:36:30;;;;;;;13.13;2.07;;;;;;;16.18;100.00;101641.28;5001275;28;20313;-57
2022/09/19 01:38:58;;;;;;;17.63;1.90;;;;;;;16.22;100.00;101644.41;5022137;28;20283;-56
2022/09/19 01:41:31;;;;;;;18.10;2.70;;;;;;;16.13;100.00;101644.63;5002978;28;20283;-54
2022/09/19 01:44:05;;;;;;;21.17;2.45;;;;;;;15.97;100.00;101634.31;5014770;28;20584;-58
2022/09/19 01:46:52;;;;;;;13.50;2.40;;;;;;;15.97;100.00;101642.41;5008444;28;20031;-56
2022/09/19 01:49:31;;;;;;;14.23;3.13;;;;;;;15.93;100.00;101652.78;5034397;28;20280;-55
2022/09/19 01:52:22;;;;;;;12.37;1.83;;;;;;;15.80;100.00;101645.53;5058837;28;20037;-55
2022/09/19 01:54:54;;;;;;;10.27;2.10;;;;;;;15.85;100.00;101653.81;5059742;28;20300;-55
2022/09/19 01:57:31;;;;;;;13.00;3.00;;;;;;;15.37;100.00;101652.22;5053854;28;20286;-56
2022/09/19 02:00:10;;;;;;;18.40;2.33;;;;;;;15.68;100.00;101652.59;5059092;28;20269;-54
2022/09/19 02:02:46;;;;;;;17.70;2.30;;;;;;;15.96;100.00;101648.84;5060325;28;20314;-55
2022/09/19 02:05:21;;;;;;;16.63;2.37;;;;;;;15.94;100.00;101654.44;5057803;28;20290;-52
2022/09/19 02:08:15;;;;;;;21.40;2.23;;;;;;;15.90;100.00;101651.31;5057780;28;20263;-57
2022/09/19 02:10:48;;;;;;;17.27;2.10;;;;;;;15.88;100.00;101648.03;5055192;28;20285;-55
2022/09/19 02:13:17;;;;;;;15.43;2.20;;;;;;;15.94;100.00;101656.31;5058409;28;20254;-55
2022/09/19 02:15:53;;;;;;;21.03;2.50;;;;;;;15.74;100.00;101649.06;5054780;28;20274;-56
2022/09/19 02:18:34;;;;;;;14.60;2.57;;;;;;;15.75;100.00;101648.84;5054317;28;20274;-55
2022/09/19 02:21:08;;;;;;;11.40;1.90;;;;;;;15.67;100.00;101651.78;5055376;28;20263;-55
2022/09/19 02:23:39;;;;;;;12.47;2.33;;;;;;;15.69;100.00;101659.66;5056872;28;20029;-60
2022/09/19 02:26:08;;;;;;;15.10;2.10;;;;;;;15.73;100.00;101660.91;5054791;28;20298;-54
2022/09/19 02:28:41;;;;;;;13.53;2.03;;;;;;;15.72;100.00;101654.66;5052420;28;20300;-57
2022/09/19 02:31:11;;;;;;;8.37;1.80;;;;;;;15.79;100.00;101665.44;5050476;28;20259;-53
2022/09/19 02:33:42;;;;;;;13.30;2.43;;;;;;;15.87;100.00;101664.41;5054162;28;20286;-55
2022/09/19 02:36:24;;;;;;;15.50;2.50;;;;;;;16.12;100.00;101664.56;5073415;28;20266;-53
2022/09/19 02:39:17;;;;;;;16.50;2.83;;;;;;;16.16;100.00;101664.97;5052515;28;20325;-55
2022/09/19 02:42:00;;;;;;;21.08;3.00;;;;;;;16.22;100.00;101664.09;5054576;28;21246;-56
2022/09/19 02:44:36;;;;;;;18.83;2.63;;;;;;;15.81;100.00;101665.25;5060380;28;20032;-56
2022/09/19 02:47:15;;;;;;;16.48;2.38;;;;;;;16.09;100.00;101667.69;5048987;28;20341;-57
2022/09/19 02:49:48;;;;;;;16.63;2.33;;;;;;;16.18;100.00;101668.28;4975319;28;20077;-55
2022/09/19 02:52:22;;;;;;;12.30;2.20;;;;;;;16.06;100.00;101665.41;4978705;28;20294;-55
2022/09/19 02:54:53;;;;;;;10.87;2.10;;;;;;;16.23;100.00;101668.47;4989703;28;20329;-57
2022/09/19 02:57:24;;;;;;;19.73;2.93;;;;;;;16.31;100.00;101673.66;4987375;28;20288;-57
2022/09/19 02:59:52;;;;;;;12.40;1.93;;;;;;;16.39;100.00;101672.56;4999608;28;20365;-57
2022/09/19 03:02:44;;;;;;;15.80;3.33;;;;;;;16.35;100.00;101674.03;4978837;28;20299;-57
2022/09/19 03:05:14;;;;;;;15.33;2.83;;;;;;;16.17;100.00;101672.88;4971776;28;20269;-57
2022/09/19 03:07:59;;;;;;;12.80;2.20;;;;;;;16.14;100.00;101672.44;4998912;28;20277;-56
2022/09/19 03:10:31;;;;;;;12.17;2.03;;;;;;;16.09;100.00;101675.78;4998021;28;20306;-54
2022/09/19 03:13:09;;;;;;;26.77;3.40;;;;;;;16.05;100.00;101674.53;4992573;28;20302;-58
2022/09/19 03:15:47;;;;;;;15.60;2.87;;;;;;;16.55;100.00;101673.13;4972747;28;20287;-56
2022/09/19 03:18:16;;;;;;;21.03;2.23;;;;;;;16.76;100.00;101672.78;4995904;28;20335;-55
2022/09/19 03:20:53;;;;;;;13.60;1.90;;;;;;;16.55;100.00;101676.66;4988400;28;20353;-56
2022/09/19 03:23:32;;;;;;;23.00;2.42;;;;;;;16.79;100.00;101679.66;4991724;28;20282;-56
2022/09/19 03:25:58;;;;;;;13.43;2.30;;;;;;;16.68;100.00;101678.47;4992814;28;20473;-56
2022/09/19 03:28:24;;;;;;;15.60;2.35;;;;;;;16.47;100.00;101677.72;4998854;28;20357;-56
2022/09/19 03:30:56;;;;;;;19.07;2.77;;;;;;;16.68;100.00;101680.31;4985306;28;20044;-57
2022/09/19 03:33:22;;;;;;;24.70;2.70;;;;;;;16.13;100.00;101668.09;4984774;28;20289;-54
2022/09/19 03:35:50;;;;;;;10.82;1.77;;;;;;;16.28;100.00;101670.53;4991221;28;20270;-53
2022/09/19 03:38:15;;;;;;;18.17;3.23;;;;;;;16.24;100.00;101674.69;5008089;28;20061;-54
2022/09/19 03:40:41;;;;;;;14.90;2.77;;;;;;;16.27;100.00;101679.66;4988956;28;20269;-53
2022/09/19 03:43:07;;;;;;;9.40;1.63;;;;;;;16.41;100.00;101677.75;4983642;28;20345;-54
2022/09/19 03:45:34;;;;;;;16.17;2.20;;;;;;;16.10;100.00;101672.03;5008041;28;20044;-54
2022/09/19 03:48:01;;;;;;;10.27;1.67;;;;;;;16.16;100.00;101678.47;4981913;28;20367;-53
2022/09/19 03:50:27;;;;;;;15.07;3.00;;;;;;;16.11;100.00;101679.09;5040309;28;20700;-53
2022/09/19 03:53:03;;;;;;;23.63;3.15;;;;;;;16.18;100.00;101679.91;4969701;28;20038;-57
2022/09/19 03:55:28;;;;;;;16.07;2.90;;;;;;;15.93;100.00;101677.06;4988012;28;20031;-54
2022/09/19 03:57:54;;;;;;;9.27;2.00;;;;;;;16.12;100.00;101682.63;4989907;28;20038;-56
2022/09/19 04:00:22;;;;;;;12.10;2.13;;;;;;;15.86;100.00;101687.84;5022840;28;20042;-55
2022/09/19 04:02:49;;;;;;;19.07;2.20;;;;;;;16.02;100.00;101685.75;5007162;28;20054;-55
2022/09/19 04:05:15;;;;;;;19.13;2.17;;;;;;;16.01;100.00;101687.63;5021682;28;20333;-55
2022/09/19 04:07:41;;;;;;;17.10;3.05;;;;;;;16.06;100.00;101687.00;4993750;28;20291;-54
2022/09/19 04:10:07;;;;;;;12.07;1.90;;;;;;;15.95;100.00;101687.66;5015155;28;20033;-54
2022/09/19 04:12:36;;;;;;;17.87;3.77;;;;;;;16.13;100.00;101695.88;5000346;28;20030;-56
2022/09/19 04:15:02;;;;;;;14.70;1.98;;;;;;;15.88;100.00;101687.63;5025006;28;20349;-51
2022/09/19 04:17:28;;;;;;;16.88;2.17;;;;;;;15.94;100.00;101686.81;4997366;28;20038;-52
2022/09/19 04:20:00;;;;;;;20.83;2.00;;;;;;;16.18;100.00;101693.41;4982399;28;20054;-58
2022/09/19 04:22:32;;;;;;;11.77;2.37;;;;;;;16.16;100.00;101686.56;5010265;28;20333;-57
2022/09/19 04:25:21;;;;;;;9.17;2.23;;;;;;;16.29;100.00;101697.31;4972751;28;20277;-53
2022/09/19 04:28:01;;;;;;;12.00;2.15;;;;;;;16.51;100.00;101701.59;5013940;28;20324;-54
2022/09/19 04:30:28;;;;;;;16.63;2.50;;;;;;;16.58;100.00;101710.47;5002389;28;20031;-55
2022/09/19 04:32:58;;;;;;;16.50;3.13;;;;;;;16.48;100.00;101705.53;5010862;28;20303;-57
2022/09/19 04:35:24;;;;;;;15.30;2.47;;;;;;;16.44;100.00;101704.31;4987996;28;20277;-56
2022/09/19 04:37:50;;;;;;;17.15;2.70;;;;;;;16.51;100.00;101707.00;5012403;28;20033;-56
2022/09/19 04:40:16;;;;;;;12.82;2.00;;;;;;;16.52;100.00;101708.66;4996791;28;20031;-54
2022/09/19 04:42:43;;;;;;;12.38;2.45;;;;;;;16.56;100.00;101710.72;5034873;28;20065;-54
2022/09/19 04:45:09;;;;;;;11.63;2.00;;;;;;;16.46;100.00;101716.56;5006827;28;20035;-55
2022/09/19 04:47:58;;;;;;;16.77;2.43;;;;;;;16.57;100.00;101711.53;4992123;28;20281;-54
2022/09/19 04:50:27;;;;;;;15.53;2.83;;;;;;;16.66;100.00;101718.34;4982109;28;20290;-54
2022/09/19 04:52:58;;;;;;;10.57;1.87;;;;;;;16.58;100.00;101721.28;5003150;28;20277;-56
2022/09/19 04:55:25;;;;;;;13.43;2.10;;;;;;;16.63;100.00;101729.59;5034954;28;20308;-57
2022/09/19 04:58:00;;;;;;;10.53;1.70;;;;;;;16.57;100.00;101727.72;5011817;28;20328;-57
2022/09/19 05:00:39;;;;;;;15.63;2.70;;;;;;;16.54;100.00;101730.84;5004900;28;20281;-54
2022/09/19 05:03:15;;;;;;;16.67;2.17;;;;;;;16.35;100.00;101728.00;4987108;28;20265;-55
2022/09/19 05:05:50;;;;;;;13.17;2.60;;;;;;;16.46;100.00;101731.91;4994860;28;20270;-54
2022/09/19 05:08:26;;;;;;;10.20;1.73;;;;;;;16.48;100.00;101733.38;5013029;28;20274;-52
2022/09/19 05:10:58;;;;;;;9.93;2.40;;;;;;;16.31;100.00;101737.56;5028421;28;20288;-55
2022/09/19 05:13:28;;;;;;;11.50;1.87;;;;;;;16.43;100.00;101741.28;5031781;28;20270;-56
2022/09/19 05:15:55;;;;;;;14.97;1.97;;;;;;;16.37;100.00;101735.91;5006549;28;20331;-54
2022/09/19 05:18:22;;;;;;;14.43;2.27;;;;;;;16.29;100.00;101750.47;4992869;28;20265;-53
2022/09/19 05:20:52;;;;;;;17.10;3.20;;;;;;;16.31;100.00;101742.97;5015363;28;20270;-55
2022/09/19 05:23:19;;;;;;;14.67;3.77;;;;;;;16.14;100.00;101742.59;5036256;28;20278;-56
2022/09/19 05:25:44;;;;;;;;;;;;;;;16.20;100.00;101742.59;5042617;28;20266;-55
2022/09/19 05:28:10;;;;;;;17.10;2.07;;;;;;;16.39;100.00;101748.16;5002104;28;19968;-55
2022/09/19 05:30:39;;;;;;;18.63;2.30;;;;;;;16.43;100.00;101746.69;5020496;28;20049;-57
2022/09/19 05:33:06;;;;;;;11.33;2.00;;;;;;;16.42;100.00;101747.72;4987370;28;20272;-57
2022/09/19 05:35:43;;;;;;;14.20;1.90;;;;;;;16.44;100.00;101747.50;4979322;28;20337;-56
2022/09/19 05:38:19;;;;;;;24.10;2.60;;;;;;;16.24;100.00;101750.28;5005559;28;20273;-54
2022/09/19 05:41:06;;;;;;;14.90;2.03;;;;;;;16.24;100.00;101752.97;4984271;28;20281;-56
2022/09/19 05:43:50;;;;;;;15.77;2.77;;;;;;;16.30;100.00;101749.41;4999030;28;20291;-57
2022/09/19 05:46:16;;;;;;;13.63;2.93;;;;;;;15.93;100.00;101749.09;5004667;28;20336;-54
2022/09/19 05:48:47;;;;;;;9.63;2.00;;;;;;;16.28;100.00;101754.19;5023830;28;20298;-57
2022/09/19 05:51:13;;;;;;;12.23;2.40;;;;;;;16.62;100.00;101752.25;5056185;28;20275;-55
2022/09/19 05:53:55;;;;;;;15.93;2.57;;;;;;;16.61;100.00;101753.28;5060248;28;20286;-52
2022/09/19 05:56:45;;;;;;;14.97;2.23;;;;;;;16.31;100.00;101760.00;5052304;28;20029;-55
2022/09/19 05:59:11;;;;;;;17.17;2.53;;;;;;;16.68;100.00;101764.03;5051509;28;20643;-56
2022/09/19 06:01:38;;;;;;;12.00;2.13;;;;;;;17.04;100.00;101768.88;5044363;28;20299;-55
2022/09/19 06:04:10;;;;;;;18.13;2.40;;;;;;;17.24;100.00;101767.94;5048396;28;20262;-55
2022/09/19 06:06:38;;;;;;;7.40;1.93;;;;;;;17.46;100.00;101775.72;5047072;28;20270;-55
2022/09/19 06:09:06;;;;;;;10.30;2.27;;;;;;;17.64;100.00;101777.66;5050529;28;20278;-54
2022/09/19 06:11:40;;;;;;;19.93;2.60;;;;;;;17.72;100.00;101773.84;5054734;28;20308;-53
2022/09/19 06:14:18;;;;;;;10.88;2.30;;;;;;;17.54;100.00;101771.91;5051943;28;20352;-54
2022/09/19 06:16:48;;;;;;;12.83;2.10;;;;;;;17.77;100.00;101782.16;5059769;28;20056;-55
2022/09/19 06:19:40;;;;;;;19.20;3.23;;;;;;;17.54;100.00;101783.56;5057840;28;20340;-56
2022/09/19 06:22:26;;;;;;;10.10;1.90;;;;;;;17.80;100.00;101786.28;5049876;28;20266;-55
2022/09/19 06:24:53;;;;;;;14.97;2.77;;;;;;;17.95;100.00;101788.63;5053114;28;20334;-55
2022/09/19 06:27:20;;;;;;;12.27;2.08;;;;;;;17.77;100.00;101798.38;5044492;28;20299;-55
2022/09/19 06:29:47;;;;;;;13.70;2.30;;;;;;;17.76;100.00;101791.28;5058710;28;20033;-56
2022/09/19 06:32:32;;;;;;;16.23;2.47;;;;;;;18.08;100.00;101804.81;5048566;28;20288;-57
2022/09/19 06:35:17;;;;;;;14.63;2.43;;;;;;;17.89;100.00;101799.31;5055682;28;20277;-56
2022/09/19 06:37:44;;;;;;;15.37;2.60;;;;;;;18.35;100.00;101804.53;5055905;28;20274;-56
2022/09/19 06:40:10;;;;;;;11.90;2.72;;;;;;;18.33;100.00;101806.66;5051643;28;20281;-56
2022/09/19 06:42:40;;;;;;;19.70;1.77;;;;;;;18.70;100.00;101805.81;5056578;28;20122;-52
2022/09/19 06:45:40;;;;;;;12.40;2.63;;;;;;;18.68;100.00;101806.03;5059786;28;20282;-57
2022/09/19 06:48:38;;;;;;;18.00;3.10;;;;;;;18.85;100.00;101819.00;5017339;28;20311;-56
2022/09/19 06:51:24;;;;;;;16.97;1.93;;;;;;;18.92;100.00;101819.75;4976549;28;20356;-55
2022/09/19 06:53:51;;;;;;;6.90;2.00;;;;;;;19.20;100.00;101821.09;5006766;28;20284;-57
2022/09/19 06:56:17;;;;;;;;;;;;;;;19.09;100.00;101822.69;4969877;28;20282;-56
2022/09/19 06:58:43;;;;;;;5.53;1.50;;;;;;;19.11;100.00;101822.44;5009362;28;19918;-54
2022/09/19 07:01:09;;;;;;;12.90;1.52;;;;;;;18.88;100.00;101822.09;5001119;28;20039;-57
2022/09/19 07:03:35;;;;;;;5.77;1.83;;;;;;;19.27;100.00;101821.81;4988285;28;20098;-55
2022/09/19 07:06:01;;;;;;;8.37;2.40;;;;;;;19.22;100.00;101829.81;5005318;28;20062;-57
2022/09/19 07:08:33;;;;;;;7.43;1.80;;;;;;;19.51;100.00;101831.94;4963578;28;20711;-57
2022/09/19 07:11:01;;;;;;;12.10;2.13;;;;;;;19.40;100.00;101831.63;4984320;28;20266;-57
2022/09/19 07:13:28;;;;;;;8.95;1.60;;;;;;;19.58;100.00;101833.47;4983281;28;20269;-52
2022/09/19 07:16:02;;;;;;;14.33;1.83;;;;;;;19.76;100.00;101823.59;5004883;28;20031;-56
2022/09/19 07:18:35;;;;;;;8.70;1.93;;;;;;;19.78;100.00;101827.75;5024227;28;20322;-57
2022/09/19 07:21:13;;;;;;;5.63;1.50;;;;;;;19.82;100.00;101828.06;5003285;28;20284;-57
2022/09/19 07:23:47;;;;;;;9.60;1.50;;;;;;;19.91;100.00;101831.31;5002846;28;20324;-53
2022/09/19 07:26:29;;;;;;;13.23;2.13;;;;;;;19.97;100.00;101837.69;5003008;28;20285;-55
2022/09/19 07:28:54;;;;;;;13.53;1.77;;;;;;;19.81;100.00;101842.72;5007410;28;20287;-55
2022/09/19 07:31:20;;;;;;;;;;;;;;;19.81;100.00;101847.31;5015949;28;20034;-57
2022/09/19 07:33:48;;;;;;;7.47;1.67;;;;;;;19.68;100.00;101848.38;4994336;28;19973;-56
2022/09/19 07:36:13;;;;;;;;;;;;;;;19.76;100.00;101848.03;4994231;28;20069;-57
2022/09/19 07:38:42;;;;;;;10.97;2.03;;;;;;;20.04;100.00;101852.81;5016647;28;19970;-53
2022/09/19 07:41:24;;;;;;;10.60;2.30;;;;;;;19.91;100.00;101853.03;4984247;28;20273;-57
2022/09/19 07:44:08;;;;;;;21.63;2.93;;;;;;;20.11;100.00;101855.44;5001086;28;20371;-56
2022/09/19 07:46:36;;;;;;;15.87;2.23;;;;;;;20.32;100.00;101855.91;5015436;28;20286;-54
2022/09/19 07:49:11;;;;;;;7.97;2.20;;;;;;;20.85;100.00;101864.16;4983074;28;20051;-57
2022/09/19 07:51:51;;;;;;;10.45;1.77;;;;;;;20.53;100.00;101867.22;4993919;28;20035;-56
2022/09/19 07:54:16;;;;;;;8.17;2.03;;;;;;;19.55;100.00;101863.75;4994421;28;20085;-57
2022/09/19 07:56:42;;;;;;;9.60;1.95;;;;;;;20.17;100.00;101870.78;4981066;28;20043;-54
2022/09/19 07:59:07;;;;;;;13.38;1.77;;;;;;;20.37;100.00;101872.31;4975120;28;20046;-55
2022/09/19 08:01:46;;;;;;;13.03;2.07;;;;;;;20.33;100.00;101865.72;4982915;28;20041;-55
2022/09/19 08:04:23;;;;;;;10.13;1.90;;;;;;;20.36;100.00;101876.09;4983652;28;20039;-55
2022/09/19 08:06:54;;;;;;;11.50;2.73;;;;;;;19.95;100.00;101877.81;4981991;28;20075;-56
2022/09/19 08:09:20;;;;;;;13.40;2.20;;;;;;;20.02;100.00;101884.81;5000335;28;20349;-56
2022/09/19 08:12:06;;;;;;;13.27;2.73;;;;;;;19.76;100.00;101875.16;4977370;28;20043;-57
2022/09/19 08:14:37;;;;;;;11.00;1.60;;;;;;;20.36;100.00;101884.25;5009921;28;20301;-58
2022/09/19 08:17:03;;;;;;;6.78;2.33;;;;;;;20.46;100.00;101884.47;4981279;28;20285;-56
2022/09/19 08:19:29;;;;;;;11.73;1.98;;;;;;;20.71;100.00;101883.38;4994735;28;20035;-58
2022/09/19 08:21:56;;;;;;;7.30;1.73;;;;;;;20.45;100.00;101890.16;4998346;28;20055;-56
2022/09/19 08:24:22;;;;;;;13.93;2.70;;;;;;;21.14;100.00;101888.66;4999441;28;20037;-53
2022/09/19 08:26:51;;;;;;;8.60;1.70;;;;;;;20.71;100.00;101899.69;4994575;28;20032;-57
2022/09/19 08:29:19;;;;;;;11.07;2.23;;;;;;;21.29;100.00;101905.28;4997667;28;20035;-55
2022/09/19 08:31:53;;;;;;;10.07;1.93;;;;;;;21.45;100.00;101906.41;4974856;28;20031;-57
2022/09/19 08:34:19;;;;;;;13.13;1.93;;;;;;;21.09;100.00;101904.88;4994341;28;20027;-57
2022/09/19 08:36:48;;;;;;;10.90;1.97;;;;;;;21.14;100.00;101904.97;4999515;28;20027;-56
2022/09/19 08:39:14;;;;;;;7.65;1.60;;;;;;;21.28;100.00;101903.63;4992317;28;20145;-57
2022/09/19 08:41:56;;;;;;;17.60;1.70;;;;;;;21.80;100.00;101901.88;5000929;28;20061;-54
2022/09/19 08:44:53;;;;;;;11.17;2.00;;;;;;;22.64;100.00;101910.31;5010588;28;20027;-57
2022/09/19 08:47:21;;;;;;;15.70;2.77;;;;;;;22.98;100.00;101917.56;4980908;28;20066;-57
2022/09/19 08:49:55;;;;;;;9.23;2.50;;;;;;;23.38;100.00;101915.63;4995029;28;20040;-58
2022/09/19 08:52:22;;;;;;;13.77;1.87;;;;;;;23.35;100.00;101922.41;4986288;28;20188;-58
2022/09/19 08:54:52;;;;;;;12.33;2.13;;;;;;;23.53;100.00;101914.94;4982110;28;20075;-57
2022/09/19 08:57:38;;;;;;;10.83;1.90;;;;;;;23.85;100.00;101917.72;4976447;28;20110;-57
2022/09/19 09:00:16;;;;;;;12.27;2.10;;;;;;;24.10;100.00;101916.31;4968843;28;20043;-56
2022/09/19 09:03:01;;;;;;;10.93;1.93;;;;;;;25.03;100.00;101927.03;4990201;28;20059;-57
2022/09/19 09:05:42;;;;;;;16.77;2.70;;;;;;;24.60;100.00;101933.34;4983721;28;20031;-55
2022/09/19 09:08:37;;;;;;;8.60;1.83;;;;;;;25.26;100.00;101931.22;4991556;28;20041;-56
2022/09/19 09:11:37;;;;;;;12.00;2.60;;;;;;;26.61;95.55;101932.13;4994614;28;20118;-57
2022/09/19 09:14:16;;;;;;;8.57;1.87;;;;;;;26.34;95.49;101927.00;4990478;28;20048;-59
2022/09/19 09:17:16;;;;;;;12.13;2.50;;;;;;;26.59;90.41;101928.03;4973737;28;20061;-56
2022/09/19 09:20:05;;;;;;;11.27;2.00;;;;;;;27.36;89.58;101924.19;4979119;28;20417;-56
2022/09/19 09:22:45;;;;;;;13.53;2.00;;;;;;;26.97;88.13;101924.91;4994290;28;20027;-55
2022/09/19 09:25:41;;;;;;;10.53;2.83;;;;;;;26.79;96.94;101920.84;4966112;28;20032;-58
2022/09/19 09:28:11;;;;;;;16.23;2.63;;;;;;;26.66;91.84;101923.06;4979530;28;20038;-57
2022/09/19 09:31:13;;;;;;;13.80;2.40;;;;;;;27.00;95.25;101927.94;4991301;28;20035;-57
2022/09/19 09:33:50;;;;;;;12.67;3.97;;;;;;;25.63;98.96;101937.63;4983437;28;20049;-56
2022/09/19 09:36:23;;;;;;;6.10;2.53;;;;;;;25.12;100.00;101936.38;4972326;28;20036;-55
2022/09/19 09:38:56;;;;;;;9.80;1.57;;;;;;;25.00;100.00;101933.84;4991196;28;20039;-57
2022/09/19 09:41:45;;;;;;;5.90;1.20;;;;;;;24.82;100.00;101928.84;5014421;28;20037;-56
2022/09/19 09:44:13;;;;;;;7.10;1.17;;;;;;;24.67;100.00;101927.63;4971645;28;20055;-57
2022/09/19 09:47:04;;;;;;;9.13;1.80;;;;;;;24.55;100.00;101938.75;4980009;28;20063;-58
2022/09/19 09:49:35;;;;;;;10.20;1.53;;;;;;;24.34;100.00;101938.66;4971362;28;20055;-57
2022/09/19 09:52:13;;;;;;;9.05;2.25;;;;;;;24.03;100.00;101943.03;4982537;28;20043;-57
2022/09/19 09:58:03;;;;;;;10.20;2.30;;;;;;;23.28;100.00;101949.88;4974378;28;20027;-57
2022/09/19 10:03:38;;;;;;;9.77;1.60;;;;;;;23.18;100.00;101938.81;4991554;28;20095;-58
2022/09/19 10:07:11;;;;;;;11.30;1.87;;;;;;;22.91;100.00;101943.13;4974442;28;20042;-58
2022/09/19 10:09:48;;;;;;;7.17;1.80;;;;;;;22.35;100.00;101943.09;4972273;28;20042;-59
2022/09/19 10:12:50;;;;;;;8.10;2.43;;;;;;;22.59;100.00;101942.94;4970300;28;20031;-58
2022/09/19 10:15:20;;;;;;;8.90;1.63;;;;;;;22.47;100.00;101941.13;4993469;28;20082;-56
2022/09/19 10:18:07;;;;;;;7.17;1.60;;;;;;;22.23;100.00;101945.09;4980774;28;20037;-56
2022/09/19 10:20:45;;;;;;;8.57;1.57;;;;;;;22.26;100.00;101944.59;4972574;28;20054;-58
2022/09/19 10:23:18;;;;;;;6.50;1.80;;;;;;;22.04;100.00;101942.59;4982280;28;20054;-55
2022/09/19 10:25:49;;;;;;;6.60;1.43;;;;;;;22.70;100.00;101954.81;4984776;28;20042;-58
2022/09/19 10:28:24;;;;;;;6.73;1.60;;;;;;;23.25;100.00;101955.84;4972883;28;20031;-55
2022/09/19 10:31:24;;;;;;;5.60;1.43;;;;;;;24.01;100.00;101946.03;4971458;28;20035;-56
2022/09/19 10:33:54;;;;;;;9.70;1.50;;;;;;;23.89;100.00;101943.44;4971303;28;20055;-56
2022/09/19 10:36:32;;;;;;;7.80;1.53;;;;;;;23.81;100.00;101941.19;4968927;28;20092;-56
2022/09/19 10:39:00;;;;;;;4.70;1.37;;;;;;;23.74;100.00;101943.28;4982388;28;20035;-58
2022/09/19 10:41:33;;;;;;;3.40;1.47;;;;;;;25.11;100.00;101939.34;4976486;28;20045;-57
2022/09/19 10:44:01;;;;;;;6.77;1.23;;;;;;;26.71;95.03;101953.22;4982439;28;20027;-58
2022/09/19 10:46:36;;;;;;;9.93;1.60;;;;;;;26.86;92.99;101959.81;4980961;28;20088;-58
2022/09/19 10:49:46;;;;;;;8.27;1.50;;;;;;;28.45;82.03;101959.09;4979386;28;20097;-59
2022/09/19 10:52:24;;;;;;;7.63;1.40;;;;;;;28.05;78.48;101964.66;5003218;28;20035;-57
2022/09/19 10:54:53;;;;;;;7.60;1.30;;;;;;;27.33;81.81;101965.91;5009537;28;20026;-58
2022/09/19 10:57:44;;;;;;;9.07;1.63;;;;;;;26.97;82.28;101977.06;5017287;28;20052;-57
2022/09/19 11:00:23;;;;;;;6.47;1.53;;;;;;;25.69;84.50;101963.91;4999582;28;20028;-57
2022/09/19 11:03:16;;;;;;;4.77;1.37;;;;;;;26.41;85.25;101963.16;5016814;28;20043;-60
2022/09/19 11:05:42;;;;;;;8.87;1.80;;;;;;;26.05;88.97;101968.63;5026058;28;20027;-57
2022/09/19 11:08:25;;;;;;;6.73;1.70;;;;;;;25.30;95.39;101961.63;5016794;28;20025;-56
2022/09/19 11:10:56;;;;;;;10.57;2.60;;;;;;;26.26;90.71;101974.13;4993109;28;20127;-59
2022/09/19 11:13:29;;;;;;;9.37;2.10;;;;;;;26.62;89.27;101976.84;4999593;28;20031;-58
2022/09/19 11:16:30;;;;;;;7.17;2.10;;;;;;;25.42;100.00;101977.81;5015329;28;20051;-59
2022/09/19 11:19:05;;;;;;;7.97;1.67;;;;;;;24.65;100.00;101968.09;4999298;28;20032;-58
2022/09/19 11:21:59;;;;;;;7.93;1.40;;;;;;;24.73;100.00;101977.72;5000350;28;20034;-56
2022/09/19 11:25:06;;;;;;;5.13;1.30;;;;;;;23.99;100.00;101977.38;4992055;28;20061;-60
2022/09/19 11:27:58;;;;;;;11.93;2.90;;;;;;;24.18;100.00;101977.88;5003646;28;20031;-59
2022/09/19 11:30:26;;;;;;;13.00;2.30;;;;;;;23.41;100.00;101978.72;5015127;28;20104;-57
2022/09/19 11:33:04;;;;;;;9.57;1.70;;;;;;;23.47;100.00;101974.97;4993385;28;20037;-56
2022/09/19 11:36:10;;;;;;;8.00;1.37;;;;;;;23.74;100.00;101978.78;4991741;28;20546;-57
2022/09/19 11:39:01;;;;;;;8.57;1.73;;;;;;;23.34;100.00;101975.34;4995164;28;20038;-57
2022/09/19 11:41:51;;;;;;;8.63;1.43;;;;;;;23.56;100.00;101964.41;4973916;28;20035;-58
2022/09/19 11:44:48;;;;;;;8.53;1.70;;;;;;;23.18;100.00;101963.38;4999998;28;20051;-57
2022/09/19 11:47:23;;;;;;;9.37;1.43;;;;;;;23.54;100.00;101974.75;5016255;28;20035;-58
2022/09/19 11:50:31;;;;;;;10.13;2.37;;;;;;;23.57;100.00;101971.53;4995184;28;20071;-57
2022/09/19 11:53:32;;;;;;;5.43;1.10;;;;;;;23.68;100.00;101963.41;4995120;28;20078;-59
2022/09/19 11:56:26;;;;;;;7.67;1.20;;;;;;;24.01;100.00;101959.69;5002112;28;20041;-57
2022/09/19 11:59:03;;;;;;;4.40;1.20;;;;;;;24.53;100.00;101956.53;5028961;28;20031;-57
2022/09/19 12:01:52;;;;;;;6.37;1.97;;;;;;;26.71;100.00;101955.97;5004013;28;20049;-56